Time;durP1;ratioP1;P1;durP2;ratioP2;P2;SDS_P1;SDS_P2;PMS_P1;PMS_P2;Temp;Humidity;BMP_temperature;BMP_pressure;BME280_temperature;BME280_humidity;BME280_pressure;Samples;Min_cycle;Max_cycle;Signal;HPM_P1;HPM_P2
2021/12/20 00:02:10;;;;;;;2.75;1.20;;;8.50;99.30;;;;;;5104217;28;20158;-90
2021/12/20 00:04:36;;;;;;;3.25;1.20;;;8.50;99.20;;;;;;5081180;28;20035;-90
2021/12/20 00:07:03;;;;;;;7.18;1.40;;;8.50;99.30;;;;;;5078901;28;20028;-89
2021/12/20 00:09:28;;;;;;;6.28;1.40;;;8.50;99.20;;;;;;5081549;28;20492;-89
2021/12/20 00:11:54;;;;;;;7.18;1.13;;;8.50;99.20;;;;;;5084376;28;20031;-89
2021/12/20 00:14:22;;;;;;;2.53;1.05;;;8.50;99.20;;;;;;5103360;28;20475;-89
2021/12/20 00:16:47;;;;;;;3.72;1.23;;;8.40;99.20;;;;;;5083920;28;20088;-87
2021/12/20 00:19:14;;;;;;;3.60;1.27;;;8.40;99.20;;;;;;5086168;28;20107;-89
2021/12/20 00:21:40;;;;;;;4.30;1.30;;;8.40;99.20;;;;;;5103902;28;20020;-89
2021/12/20 00:24:06;;;;;;;6.32;1.40;;;8.40;99.30;;;;;;5086972;28;20420;-90
2021/12/20 00:26:32;;;;;;;5.15;1.35;;;8.30;99.30;;;;;;5095126;28;20035;-90
2021/12/20 00:28:57;;;;;;;6.75;1.45;;;8.30;99.30;;;;;;5097889;28;20021;-89
2021/12/20 00:31:23;;;;;;;9.68;1.17;;;8.30;99.30;;;;;;5099937;28;20092;-89
2021/12/20 00:33:49;;;;;;;6.28;1.13;;;8.30;99.30;;;;;;5102258;28;20072;-88
2021/12/20 00:36:21;;;;;;;6.53;1.50;;;8.30;99.30;;;;;;5108302;28;20031;-89
2021/12/20 00:41:33;;;;;;;5.03;2.35;;;8.30;99.20;;;;;;5110521;28;20089;-90
2021/12/20 00:44:00;;;;;;;4.40;1.42;;;8.30;99.20;;;;;;5081001;28;20024;-90
2021/12/20 00:46:26;;;;;;;6.60;1.35;;;8.30;99.10;;;;;;5081094;28;20127;-90
2021/12/20 00:48:52;;;;;;;6.45;1.42;;;8.30;99.10;;;;;;5080734;28;20028;-89
2021/12/20 00:51:18;;;;;;;4.68;1.75;;;8.30;99.10;;;;;;5085514;28;20040;-88
2021/12/20 00:53:45;;;;;;;2.97;0.90;;;8.30;99.10;;;;;;5093237;28;20020;-90
2021/12/20 00:56:10;;;;;;;4.50;1.02;;;8.30;99.00;;;;;;5084154;28;20101;-90
2021/12/20 00:58:36;;;;;;;4.30;1.30;;;8.30;99.00;;;;;;5098769;28;20024;-90
2021/12/20 01:01:03;;;;;;;8.15;1.67;;;8.30;99.00;;;;;;5098680;28;20103;-90
2021/12/20 01:03:32;;;;;;;6.40;1.50;;;8.30;99.00;;;;;;5085214;28;20470;-90
2021/12/20 01:06:00;;;;;;;5.07;1.70;;;8.30;99.00;;;;;;5098714;28;20024;-90
2021/12/20 01:08:28;;;;;;;3.90;1.38;;;8.30;99.00;;;;;;5081906;28;20419;-90
2021/12/20 01:10:55;;;;;;;6.07;1.83;;;8.30;98.90;;;;;;5080512;28;20024;-89
2021/12/20 01:13:24;;;;;;;8.48;2.58;;;8.30;98.90;;;;;;5080913;28;20043;-89
2021/12/20 01:15:53;;;;;;;5.93;1.48;;;8.30;98.80;;;;;;5079602;28;20020;-88
2021/12/20 01:18:21;;;;;;;5.72;1.88;;;8.30;98.80;;;;;;5079982;28;20048;-90
2021/12/20 01:20:47;;;;;;;6.10;1.40;;;8.30;98.80;;;;;;5080286;28;20028;-89
2021/12/20 01:23:13;;;;;;;4.65;1.30;;;8.20;98.80;;;;;;5097930;28;20056;-90
2021/12/20 01:25:40;;;;;;;8.32;1.40;;;8.20;98.80;;;;;;5098638;28;20020;-90
2021/12/20 01:28:06;;;;;;;6.10;1.35;;;8.20;98.80;;;;;;5078291;28;20040;-77
2021/12/20 01:30:33;;;;;;;9.02;2.20;;;8.20;98.80;;;;;;5095159;28;20032;-77
2021/12/20 01:32:59;;;;;;;8.50;2.10;;;8.20;98.80;;;;;;5077110;28;20016;-77
2021/12/20 01:35:27;;;;;;;6.93;1.10;;;8.10;98.70;;;;;;5077129;28;20103;-77
2021/12/20 01:37:54;;;;;;;7.10;1.90;;;8.10;98.70;;;;;;5095003;28;20108;-78
2021/12/20 01:40:21;;;;;;;5.63;1.30;;;8.10;98.70;;;;;;5094958;28;20016;-77
2021/12/20 01:42:49;;;;;;;9.80;1.67;;;8.10;98.70;;;;;;5076207;28;20064;-77
2021/12/20 01:45:18;;;;;;;7.18;1.60;;;8.10;98.70;;;;;;5094808;28;20462;-77
2021/12/20 01:47:48;;;;;;;11.40;2.20;;;8.10;98.70;;;;;;5076624;28;20028;-77
2021/12/20 01:50:35;;;;;;;7.93;2.25;;;8.10;98.60;;;;;;5094677;28;20024;-77
2021/12/20 01:53:01;;;;;;;7.05;1.60;;;8.10;98.60;;;;;;5076729;28;20039;-77
2021/12/20 01:55:26;;;;;;;4.00;1.45;;;8.10;98.60;;;;;;5094698;28;20432;-77
2021/12/20 01:57:52;;;;;;;6.07;1.60;;;8.10;98.60;;;;;;5094828;28;20113;-78
2021/12/20 02:00:21;;;;;;;7.68;2.10;;;8.10;98.50;;;;;;5094585;28;20024;-77
2021/12/20 02:02:49;;;;;;;3.58;1.48;;;8.10;98.50;;;;;;5076271;28;20103;-75
2021/12/20 02:05:23;;;;;;;11.80;1.60;;;8.10;98.50;;;;;;5075899;28;20050;-75
2021/12/20 02:08:00;;;;;;;8.98;1.63;;;8.00;98.50;;;;;;5094962;28;20027;-75
2021/12/20 02:10:26;;;;;;;5.45;1.60;;;8.00;98.60;;;;;;5076346;28;20452;-75
2021/12/20 02:12:52;;;;;;;4.60;1.60;;;8.00;98.50;;;;;;5094574;28;20467;-75
2021/12/20 02:15:18;;;;;;;6.57;1.73;;;8.00;98.50;;;;;;5076099;28;20042;-75
2021/12/20 02:17:44;;;;;;;6.28;1.48;;;8.00;98.50;;;;;;5094528;28;20477;-75
2021/12/20 02:20:26;;;;;;;6.38;1.40;;;8.00;98.50;;;;;;5075891;28;20032;-76
2021/12/20 02:22:57;;;;;;;8.07;1.48;;;8.00;98.50;;;;;;5076444;28;20024;-75
2021/12/20 02:25:24;;;;;;;3.92;1.27;;;7.90;98.50;;;;;;5075898;28;20472;-76
2021/12/20 02:27:50;;;;;;;10.65;1.80;;;7.90;98.50;;;;;;5094034;28;20028;-76
2021/12/20 02:38:28;;;;;;;2.67;1.92;;;7.90;98.40;;;;;;5094480;28;20123;-76
2021/12/20 02:41:05;;;;;;;7.20;2.10;;;7.90;98.40;;;;;;5093853;28;20016;-76
2021/12/20 02:43:35;;;;;;;4.20;1.55;;;7.90;98.40;;;;;;5075953;28;20032;-76
2021/12/20 02:46:03;;;;;;;4.43;1.40;;;7.90;98.40;;;;;;5075406;28;20024;-76
2021/12/20 02:48:29;;;;;;;11.98;2.58;;;7.90;98.40;;;;;;5075525;28;20442;-76
2021/12/20 02:50:56;;;;;;;8.82;1.70;;;7.90;98.40;;;;;;5093254;28;20490;-76
2021/12/20 02:53:22;;;;;;;7.57;1.55;;;7.90;98.40;;;;;;5093562;28;20099;-76
2021/12/20 02:55:48;;;;;;;8.05;1.38;;;7.90;98.30;;;;;;5074543;28;20115;-75
2021/12/20 02:58:14;;;;;;;5.45;1.73;;;7.90;98.30;;;;;;5075287;28;20027;-75
2021/12/20 03:00:40;;;;;;;14.07;2.00;;;8.00;98.30;;;;;;5094457;28;20114;-75
2021/12/20 03:03:07;;;;;;;3.35;1.20;;;8.00;98.30;;;;;;5093185;28;20051;-75
2021/12/20 03:05:33;;;;;;;4.53;2.15;;;8.00;98.30;;;;;;5093379;28;20031;-76
2021/12/20 03:07:59;;;;;;;6.68;1.90;;;8.00;98.20;;;;;;5075133;28;20020;-75
2021/12/20 03:10:27;;;;;;;6.88;1.48;;;8.00;98.20;;;;;;5075145;28;20031;-75
2021/12/20 03:12:53;;;;;;;7.43;1.60;;;8.00;98.20;;;;;;5093017;28;20142;-75
2021/12/20 03:15:23;;;;;;;6.85;1.45;;;8.00;98.20;;;;;;5092974;28;20028;-75
2021/12/20 03:17:49;;;;;;;6.72;1.63;;;8.00;98.20;;;;;;5093066;28;20044;-75
2021/12/20 03:20:15;;;;;;;7.38;1.48;;;7.90;98.10;;;;;;5075321;28;20020;-76
2021/12/20 03:22:42;;;;;;;4.03;1.15;;;7.90;98.10;;;;;;5092929;28;20044;-76
2021/12/20 03:25:08;;;;;;;11.98;1.63;;;7.90;98.20;;;;;;5093416;28;20084;-76
2021/12/20 03:27:34;;;;;;;9.82;2.20;;;7.90;98.20;;;;;;5093199;28;20453;-76
2021/12/20 03:30:00;;;;;;;9.60;1.90;;;7.90;98.20;;;;;;5093057;28;20146;-75
2021/12/20 03:32:26;;;;;;;10.45;1.77;;;7.90;98.10;;;;;;5074548;28;20126;-74
2021/12/20 03:34:51;;;;;;;7.43;1.30;;;7.80;98.10;;;;;;5093098;28;20048;-74
2021/12/20 03:37:17;;;;;;;7.15;1.88;;;7.80;98.10;;;;;;5093282;28;20047;-75
2021/12/20 03:39:43;;;;;;;5.55;1.33;;;7.80;98.20;;;;;;5074851;28;20047;-77
2021/12/20 03:42:09;;;;;;;5.50;1.73;;;7.80;98.10;;;;;;5075092;28;20036;-77
2021/12/20 03:44:38;;;;;;;3.25;1.50;;;7.80;98.10;;;;;;5093044;28;20016;-77
2021/12/20 03:47:04;;;;;;;5.50;1.42;;;7.80;98.00;;;;;;5092889;28;20021;-77
2021/12/20 03:49:29;;;;;;;4.18;2.03;;;7.90;98.00;;;;;;5075481;28;20039;-77
2021/12/20 03:51:55;;;;;;;6.28;1.35;;;7.90;98.00;;;;;;5093456;28;20024;-77
2021/12/20 03:54:21;;;;;;;4.65;1.42;;;7.90;98.00;;;;;;5074756;28;20023;-76
2021/12/20 03:56:47;;;;;;;9.48;1.67;;;7.80;97.90;;;;;;5093126;28;20024;-76
2021/12/20 03:59:13;;;;;;;3.83;1.20;;;7.90;97.90;;;;;;5075346;28;20063;-76
2021/12/20 04:01:39;;;;;;;4.90;2.00;;;7.90;98.00;;;;;;5075332;28;20197;-75
2021/12/20 04:04:05;;;;;;;6.10;1.23;;;7.90;97.90;;;;;;5074754;28;20496;-76
2021/12/20 04:06:33;;;;;;;5.70;1.23;;;7.90;97.90;;;;;;5076492;28;20115;-75
2021/12/20 04:09:00;;;;;;;5.32;1.58;;;7.90;97.90;;;;;;5096740;28;20016;-76
2021/12/20 04:11:26;;;;;;;7.22;1.92;;;7.90;97.80;;;;;;5096582;28;20038;-75
2021/12/20 04:13:52;;;;;;;5.65;1.33;;;7.90;97.90;;;;;;5096370;28;20381;-76
2021/12/20 04:16:18;;;;;;;7.78;2.40;;;7.90;97.80;;;;;;5079012;28;20034;-76
2021/12/20 04:18:45;;;;;;;5.25;1.33;;;7.90;97.80;;;;;;5078352;28;20058;-75
2021/12/20 04:21:11;;;;;;;6.75;1.65;;;7.90;97.80;;;;;;5077842;28;20032;-75
2021/12/20 04:23:37;;;;;;;5.25;1.27;;;7.90;97.80;;;;;;5078228;28;20498;-75
2021/12/20 04:26:03;;;;;;;6.38;1.92;;;7.90;97.80;;;;;;5096572;28;20016;-76
2021/12/20 04:28:29;;;;;;;5.28;2.45;;;7.90;97.70;;;;;;5078841;28;20472;-75
2021/12/20 04:30:54;;;;;;;6.47;0.93;;;7.90;97.70;;;;;;5078729;28;20028;-75
2021/12/20 04:33:20;;;;;;;5.22;1.30;;;7.90;97.70;;;;;;5077877;28;20383;-76
2021/12/20 04:35:47;;;;;;;5.35;1.48;;;7.90;97.60;;;;;;5077995;28;20024;-75
2021/12/20 04:38:13;;;;;;;6.00;1.38;;;7.90;97.60;;;;;;5096099;28;20024;-76
2021/12/20 04:40:39;;;;;;;8.52;2.10;;;7.90;97.60;;;;;;5096107;28;20105;-75
2021/12/20 04:43:06;;;;;;;7.03;1.30;;;7.90;97.50;;;;;;5078567;28;20027;-76
2021/12/20 04:45:33;;;;;;;5.55;1.50;;;7.90;97.50;;;;;;5096007;28;20107;-75
2021/12/20 04:47:59;;;;;;;9.70;1.38;;;7.90;97.40;;;;;;5096026;28;20168;-75
2021/12/20 04:50:26;;;;;;;3.67;1.10;;;8.00;97.40;;;;;;5095782;28;20515;-76
2021/12/20 04:52:54;;;;;;;6.25;1.55;;;7.90;97.30;;;;;;5077719;28;20124;-75
2021/12/20 04:55:20;;;;;;;3.83;1.30;;;7.90;97.30;;;;;;5077601;28;20020;-75
2021/12/20 04:57:47;;;;;;;7.35;1.42;;;7.90;97.30;;;;;;5095854;28;20566;-75
2021/12/20 05:00:17;;;;;;;6.35;1.35;;;7.90;97.20;;;;;;5095661;28;20032;-75
2021/12/20 05:02:43;;;;;;;7.05;1.70;;;7.90;97.20;;;;;;5095806;28;20032;-75
2021/12/20 05:05:10;;;;;;;4.78;1.30;;;8.00;97.20;;;;;;5095649;28;20030;-75
2021/12/20 05:07:38;;;;;;;1.40;0.98;;;7.90;97.10;;;;;;5095542;28;20077;-77
2021/12/20 05:10:12;;;;;;;5.63;1.35;;;7.90;97.10;;;;;;5095635;28;20020;-76
2021/12/20 05:12:38;;;;;;;5.03;1.35;;;7.90;97.10;;;;;;5096091;28;20028;-75
2021/12/20 05:15:05;;;;;;;12.25;1.40;;;7.90;97.10;;;;;;5077275;28;20399;-75
2021/12/20 05:17:30;;;;;;;7.47;1.60;;;7.90;97.00;;;;;;5094655;28;20048;-75
2021/12/20 05:19:56;;;;;;;4.85;1.55;;;7.90;97.10;;;;;;5077096;28;20521;-75
2021/12/20 05:22:22;;;;;;;4.53;1.20;;;7.90;97.10;;;;;;5077512;28;20056;-76
2021/12/20 05:24:47;;;;;;;3.45;1.20;;;7.90;97.10;;;;;;5095998;28;20047;-76
2021/12/20 05:27:13;;;;;;;6.20;2.20;;;7.80;97.00;;;;;;5077276;28;20024;-76
2021/12/20 05:29:39;;;;;;;12.20;1.80;;;7.80;97.00;;;;;;5094855;28;20380;-76
2021/12/20 05:32:06;;;;;;;11.05;2.22;;;7.80;97.00;;;;;;5095357;28;20130;-76
2021/12/20 05:34:34;;;;;;;4.75;1.50;;;7.80;96.90;;;;;;5095471;28;20025;-76
2021/12/20 05:37:00;;;;;;;8.90;1.35;;;7.80;96.90;;;;;;5095011;28;20028;-76
2021/12/20 05:39:26;;;;;;;4.30;1.17;;;7.80;97.00;;;;;;5076694;28;20468;-76
2021/12/20 05:41:52;;;;;;;4.50;1.60;;;7.70;96.90;;;;;;5095471;28;20028;-76
2021/12/20 05:44:18;;;;;;;6.40;1.20;;;7.70;96.90;;;;;;5095035;28;20032;-75
2021/12/20 05:46:43;;;;;;;5.97;1.42;;;7.70;96.90;;;;;;5076829;28;20031;-75
2021/12/20 05:49:09;;;;;;;6.63;1.70;;;7.80;96.90;;;;;;5094636;28;20357;-77
2021/12/20 05:51:35;;;;;;;6.88;1.52;;;7.70;96.90;;;;;;5095108;28;20028;-76
2021/12/20 05:54:00;;;;;;;4.60;1.23;;;7.80;96.80;;;;;;5094911;28;20020;-76
2021/12/20 05:56:26;;;;;;;4.70;1.30;;;7.80;96.80;;;;;;5076383;28;20024;-76
2021/12/20 05:58:52;;;;;;;6.25;1.85;;;7.80;96.80;;;;;;5095104;28;20367;-76
2021/12/20 06:01:17;;;;;;;9.20;1.70;;;7.70;96.80;;;;;;5076281;28;20051;-76
2021/12/20 06:03:43;;;;;;;5.57;1.95;;;7.70;96.80;;;;;;5094725;28;20103;-76
2021/12/20 06:06:09;;;;;;;6.90;1.38;;;7.70;96.80;;;;;;5094085;28;20027;-76
2021/12/20 06:08:35;;;;;;;4.32;1.30;;;7.70;96.80;;;;;;5094000;28;20380;-76
2021/12/20 06:11:01;;;;;;;7.55;1.45;;;7.70;96.80;;;;;;5075957;28;20023;-76
2021/12/20 06:13:27;;;;;;;4.47;1.35;;;7.70;96.70;;;;;;5075947;28;20476;-75
2021/12/20 06:15:52;;;;;;;6.28;1.73;;;7.70;96.70;;;;;;5075531;28;20050;-75
2021/12/20 06:18:18;;;;;;;7.10;1.77;;;7.70;96.70;;;;;;5075780;28;20082;-77
2021/12/20 06:20:44;;;;;;;4.95;1.50;;;7.70;96.70;;;;;;5093885;28;20028;-76
2021/12/20 06:23:11;;;;;;;6.30;1.45;;;7.80;96.70;;;;;;5093810;28;20024;-76
2021/12/20 06:25:37;;;;;;;4.22;1.42;;;7.70;96.60;;;;;;5093761;28;20024;-75
2021/12/20 06:28:03;;;;;;;10.15;2.00;;;7.70;96.60;;;;;;5093423;28;20468;-76
2021/12/20 06:30:29;;;;;;;3.33;0.90;;;7.80;96.60;;;;;;5075401;28;20020;-76
2021/12/20 06:32:55;;;;;;;4.75;1.20;;;7.80;96.60;;;;;;5075404;28;20028;-76
2021/12/20 06:35:20;;;;;;;4.78;1.30;;;7.70;96.60;;;;;;5075348;28;20028;-76
2021/12/20 06:37:59;;;;;;;5.82;1.45;;;7.70;96.60;;;;;;5075305;28;20034;-76
2021/12/20 06:40:25;;;;;;;6.13;1.40;;;7.70;96.50;;;;;;5093709;28;20047;-77
2021/12/20 06:42:51;;;;;;;6.43;1.67;;;7.70;96.50;;;;;;5075472;28;20020;-74
2021/12/20 06:45:16;;;;;;;8.13;1.60;;;7.70;96.50;;;;;;5075561;28;20024;-74
2021/12/20 06:47:42;;;;;;;3.40;1.13;;;7.70;96.50;;;;;;5075083;28;20024;-72
2021/12/20 06:50:08;;;;;;;5.53;1.30;;;7.70;96.50;;;;;;5075336;28;20107;-73
2021/12/20 06:52:34;;;;;;;9.38;1.92;;;7.70;96.50;;;;;;5075388;28;20042;-75
2021/12/20 06:55:00;;;;;;;6.50;1.17;;;7.80;96.50;;;;;;5093710;28;20457;-73
2021/12/20 06:57:25;;;;;;;5.85;1.60;;;7.80;96.40;;;;;;5093297;28;20035;-72
2021/12/20 06:59:51;;;;;;;4.85;1.25;;;7.70;96.40;;;;;;5093466;28;20031;-73
2021/12/20 07:02:18;;;;;;;3.25;1.40;;;7.80;96.40;;;;;;5093431;28;20024;-74
2021/12/20 07:04:43;;;;;;;2.75;1.67;;;7.80;96.30;;;;;;5094003;28;20020;-73
2021/12/20 07:07:09;;;;;;;3.75;1.55;;;7.70;96.30;;;;;;5093472;28;20452;-73
2021/12/20 07:09:35;;;;;;;5.05;1.10;;;7.80;96.40;;;;;;5092959;28;20489;-73
2021/12/20 07:12:02;;;;;;;7.22;1.23;;;7.70;96.60;;;;;;5075039;28;20447;-73
2021/12/20 07:14:29;;;;;;;3.00;1.08;;;7.80;96.40;;;;;;5074668;28;20024;-73
2021/12/20 07:16:55;;;;;;;5.15;1.38;;;7.80;96.40;;;;;;5093239;28;20024;-73
2021/12/20 07:19:21;;;;;;;4.53;1.10;;;7.70;96.30;;;;;;5071050;28;20131;-73
2021/12/20 07:21:47;;;;;;;5.05;1.30;;;7.80;96.30;;;;;;5072933;28;20067;-73
2021/12/20 07:24:13;;;;;;;5.07;1.50;;;7.80;96.30;;;;;;5072734;28;20025;-73
2021/12/20 07:26:42;;;;;;;5.05;1.63;;;7.70;96.30;;;;;;5072859;28;20033;-74
2021/12/20 07:29:08;;;;;;;6.75;1.27;;;7.80;96.30;;;;;;5071513;28;20059;-73
2021/12/20 07:31:33;;;;;;;2.20;0.80;;;7.80;96.30;;;;;;5072815;28;20029;-74
2021/12/20 07:33:59;;;;;;;4.75;1.95;;;7.80;96.30;;;;;;5072876;28;20112;-75
2021/12/20 07:36:25;;;;;;;6.70;1.17;;;7.80;96.30;;;;;;5072834;28;20025;-75
2021/12/20 07:38:51;;;;;;;6.28;1.30;;;7.80;96.30;;;;;;5072798;28;20016;-75
2021/12/20 07:41:18;;;;;;;5.82;1.38;;;7.80;96.30;;;;;;5074347;28;20028;-76
2021/12/20 07:43:45;;;;;;;7.35;1.35;;;7.80;96.30;;;;;;5077453;28;20024;-74
2021/12/20 07:46:11;;;;;;;3.25;1.30;;;7.80;96.20;;;;;;5075853;28;20091;-74
2021/12/20 07:48:36;;;;;;;4.10;1.27;;;7.80;96.20;;;;;;5075680;28;20145;-74
2021/12/20 07:51:03;;;;;;;3.10;1.05;;;7.80;96.20;;;;;;5076690;28;20024;-74
2021/12/20 07:53:28;;;;;;;6.70;1.10;;;7.80;96.20;;;;;;5076550;28;20116;-74
2021/12/20 07:55:54;;;;;;;4.97;1.35;;;7.80;96.20;;;;;;5075247;28;20166;-74
2021/12/20 07:58:20;;;;;;;5.88;1.15;;;7.80;96.20;;;;;;5076994;28;20029;-74
2021/12/20 08:00:46;;;;;;;4.50;1.33;;;7.80;96.20;;;;;;5074897;28;20081;-74
2021/12/20 08:03:12;;;;;;;3.63;1.23;;;7.80;96.20;;;;;;5076543;28;20472;-74
2021/12/20 08:05:38;;;;;;;4.07;1.48;;;7.80;96.10;;;;;;5076477;28;20031;-74
2021/12/20 08:08:04;;;;;;;5.75;1.52;;;7.80;96.10;;;;;;5076393;28;20056;-74
2021/12/20 08:10:30;;;;;;;5.78;1.48;;;7.80;96.10;;;;;;5077000;28;20016;-74
2021/12/20 08:12:56;;;;;;;3.95;1.27;;;7.80;96.10;;;;;;5076749;28;20033;-74
2021/12/20 08:15:22;;;;;;;4.15;1.10;;;7.80;96.10;;;;;;5074867;28;20115;-75
2021/12/20 08:17:52;;;;;;;7.80;1.75;;;7.80;96.10;;;;;;5082386;28;20051;-74
2021/12/20 08:20:18;;;;;;;3.50;1.27;;;7.90;96.10;;;;;;5078481;28;20016;-74
2021/12/20 08:22:44;;;;;;;7.93;2.20;;;7.90;96.00;;;;;;5096124;28;20073;-74
2021/12/20 08:25:10;;;;;;;3.13;1.10;;;7.90;95.90;;;;;;5096338;28;20028;-74
2021/12/20 08:27:36;;;;;;;6.97;1.45;;;7.90;95.90;;;;;;5095965;28;20028;-72
2021/12/20 08:30:03;;;;;;;5.25;1.90;;;7.90;95.90;;;;;;5096256;28;20020;-73
2021/12/20 08:32:29;;;;;;;4.10;1.17;;;7.90;95.90;;;;;;5096054;28;20059;-73
2021/12/20 08:34:55;;;;;;;4.20;1.13;;;8.00;95.90;;;;;;5077728;28;20059;-73
2021/12/20 08:37:21;;;;;;;3.05;0.93;;;8.00;95.80;;;;;;5095778;28;20030;-74
2021/12/20 08:39:46;;;;;;;6.28;1.20;;;8.00;95.70;;;;;;5095840;28;20028;-73
2021/12/20 08:42:12;;;;;;;4.65;1.35;;;8.00;95.70;;;;;;5077439;28;20032;-73
2021/12/20 08:44:38;;;;;;;4.57;1.75;;;8.10;95.70;;;;;;5095871;28;20074;-73
2021/12/20 08:47:04;;;;;;;6.13;1.55;;;8.00;95.60;;;;;;5096314;28;20368;-73
2021/12/20 08:49:30;;;;;;;4.57;1.40;;;8.00;95.60;;;;;;5095957;28;20024;-73
2021/12/20 08:51:56;;;;;;;5.30;1.20;;;8.00;95.50;;;;;;5095064;28;20024;-73
2021/12/20 08:54:27;;;;;;;3.35;1.10;;;8.00;95.60;;;;;;5077055;28;20108;-74
2021/12/20 08:56:53;;;;;;;2.92;1.10;;;7.90;95.60;;;;;;5095828;28;20042;-73
2021/12/20 08:59:19;;;;;;;5.68;1.45;;;7.90;95.60;;;;;;5095666;28;20020;-73
2021/12/20 09:01:45;;;;;;;5.63;1.25;;;7.90;95.60;;;;;;5095525;28;20148;-73
2021/12/20 09:04:11;;;;;;;8.45;1.73;;;7.90;95.60;;;;;;5095666;28;20055;-74
2021/12/20 09:06:39;;;;;;;4.95;1.55;;;7.90;95.60;;;;;;5095499;28;20037;-73
2021/12/20 09:09:07;;;;;;;7.43;1.52;;;7.90;95.60;;;;;;5095628;28;20107;-73
2021/12/20 09:11:33;;;;;;;8.05;1.90;;;7.90;95.50;;;;;;5095311;28;20119;-73
2021/12/20 09:13:59;;;;;;;2.83;1.33;;;8.00;95.50;;;;;;5095378;28;20066;-73
2021/12/20 09:16:25;;;;;;;4.40;1.48;;;8.00;95.50;;;;;;5077089;28;20099;-74
2021/12/20 09:18:51;;;;;;;3.67;1.45;;;8.10;95.40;;;;;;5073553;28;20107;-73
2021/12/20 09:21:17;;;;;;;4.80;1.55;;;8.10;95.40;;;;;;5074708;28;20518;-74
2021/12/20 09:23:43;;;;;;;5.00;0.98;;;8.10;95.40;;;;;;5075044;28;20496;-74
2021/12/20 09:26:10;;;;;;;3.05;1.27;;;8.10;95.40;;;;;;5073632;28;20107;-74
2021/12/20 09:28:36;;;;;;;8.55;1.50;;;8.10;95.30;;;;;;5074766;28;20106;-74
2021/12/20 09:31:03;;;;;;;5.55;2.17;;;8.10;95.60;;;;;;5073439;28;20060;-74
2021/12/20 09:33:29;;;;;;;6.55;1.50;;;8.20;95.30;;;;;;5074706;28;20036;-74
2021/12/20 09:35:55;;;;;;;5.15;1.55;;;8.20;95.30;;;;;;5075070;28;20020;-74
2021/12/20 09:38:21;;;;;;;5.80;1.35;;;8.20;95.30;;;;;;5075360;28;20464;-74
2021/12/20 09:41:13;;;;;;;2.78;1.30;;;8.10;95.40;;;;;;5074547;28;20043;-74
2021/12/20 09:43:46;;;;;;;6.97;1.42;;;8.10;95.40;;;;;;5074569;28;20029;-74
2021/12/20 09:46:16;;;;;;;2.92;1.27;;;8.10;95.50;;;;;;5074613;28;20016;-74
2021/12/20 09:48:47;;;;;;;4.25;0.88;;;8.00;95.50;;;;;;5074355;28;20433;-74
2021/12/20 09:51:13;;;;;;;4.38;1.60;;;7.90;95.60;;;;;;5073268;28;20522;-74
2021/12/20 09:53:40;;;;;;;6.70;2.72;;;7.90;95.70;;;;;;5074242;28;20113;-73
2021/12/20 09:56:07;;;;;;;7.32;1.40;;;7.80;95.80;;;;;;5074294;28;20021;-74
2021/12/20 09:58:36;;;;;;;5.85;1.40;;;7.80;95.80;;;;;;5072610;28;20032;-73
2021/12/20 10:01:02;;;;;;;3.65;1.35;;;7.80;95.80;;;;;;5074148;28;20025;-73
2021/12/20 10:03:28;;;;;;;5.05;1.20;;;7.80;95.80;;;;;;5073344;28;20060;-73
2021/12/20 10:05:56;;;;;;;5.85;1.98;;;7.80;95.80;;;;;;5072664;28;20429;-73
2021/12/20 10:08:31;;;;;;;8.60;1.17;;;7.80;95.80;;;;;;5072819;28;20166;-73
2021/12/20 10:10:59;;;;;;;5.55;1.55;;;7.80;96.10;;;;;;5072966;28;20139;-73
2021/12/20 10:13:29;;;;;;;5.22;1.30;;;7.70;95.80;;;;;;5072622;28;20415;-73
2021/12/20 10:15:59;;;;;;;6.30;1.40;;;7.80;95.80;;;;;;5074013;28;20059;-73
2021/12/20 10:18:27;;;;;;;3.72;1.20;;;7.70;95.90;;;;;;5072512;28;20466;-73
2021/12/20 10:20:56;;;;;;;5.82;1.65;;;7.70;95.90;;;;;;5073556;28;20166;-73
2021/12/20 10:23:39;;;;;;;11.63;1.70;;;7.70;95.90;;;;;;5073479;28;20069;-73
2021/12/20 10:26:20;;;;;;;5.10;2.55;;;7.70;95.90;;;;;;5073089;28;20409;-72
2021/12/20 10:28:52;;;;;;;4.38;1.50;;;7.70;96.00;;;;;;5072216;28;20025;-73
2021/12/20 10:31:26;;;;;;;7.40;1.50;;;7.70;96.00;;;;;;5072103;28;20468;-73
2021/12/20 10:33:53;;;;;;;7.68;1.60;;;7.70;96.00;;;;;;5071414;28;20190;-74
2021/12/20 10:36:19;;;;;;;10.07;1.98;;;7.70;96.00;;;;;;5073331;28;20024;-73
2021/12/20 10:38:48;;;;;;;11.63;2.35;;;7.70;95.90;;;;;;5071917;28;20028;-74
2021/12/20 10:41:22;;;;;;;7.97;1.55;;;7.70;95.90;;;;;;5073355;28;20491;-74
2021/12/20 10:43:57;;;;;;;8.07;2.40;;;7.80;96.00;;;;;;5072196;28;20020;-74
2021/12/20 10:46:30;;;;;;;9.40;1.92;;;7.80;96.00;;;;;;5073338;28;20449;-74
2021/12/20 10:49:27;;;;;;;6.45;1.23;;;7.80;95.90;;;;;;5071946;28;20101;-72
2021/12/20 10:51:54;;;;;;;5.18;1.58;;;7.80;95.80;;;;;;5071594;28;20189;-73
2021/12/20 10:54:25;;;;;;;6.35;1.65;;;7.80;95.90;;;;;;5073241;28;20032;-74
2021/12/20 10:57:01;;;;;;;6.15;1.85;;;7.90;95.90;;;;;;5072216;28;20043;-74
2021/12/20 10:59:29;;;;;;;6.55;1.80;;;7.90;95.90;;;;;;5073346;28;20030;-74
2021/12/20 11:05:00;;;;;;;3.45;1.55;;;7.90;95.80;;;;;;5073452;28;20424;-74
2021/12/20 11:10:10;;;;;;;6.72;2.15;;;8.10;95.80;;;;;;5073285;28;20102;-73
2021/12/20 11:12:36;;;;;;;5.00;1.73;;;8.10;95.80;;;;;;5072849;28;20029;-73
2021/12/20 11:15:08;;;;;;;8.63;1.92;;;8.20;95.70;;;;;;5070969;28;20036;-73
2021/12/20 11:17:36;;;;;;;6.53;1.58;;;8.30;95.70;;;;;;5076514;28;20097;-74
2021/12/20 11:20:03;;;;;;;4.95;1.65;;;8.40;95.60;;;;;;5093207;28;20111;-74
2021/12/20 11:22:32;;;;;;;10.75;2.63;;;8.50;95.60;;;;;;5093072;28;20479;-74
2021/12/20 11:25:07;;;;;;;9.00;1.80;;;8.60;95.40;;;;;;5092942;28;20028;-75
2021/12/20 11:27:37;;;;;;;4.95;1.90;;;8.70;95.40;;;;;;5074591;28;20016;-75
2021/12/20 11:30:10;;;;;;;7.53;1.58;;;8.80;95.30;;;;;;5092754;28;20020;-74
2021/12/20 11:32:37;;;;;;;9.02;1.75;;;8.70;95.20;;;;;;5093205;28;20024;-74
2021/12/20 11:35:03;;;;;;;8.95;2.17;;;8.70;95.20;;;;;;5093239;28;20020;-74
2021/12/20 11:37:29;;;;;;;4.15;1.30;;;8.70;95.20;;;;;;5092679;28;20024;-74
2021/12/20 11:39:58;;;;;;;4.93;1.63;;;8.80;95.30;;;;;;5074690;28;20107;-74
2021/12/20 11:42:24;;;;;;;13.35;2.05;;;8.90;95.30;;;;;;5093202;28;20028;-74
2021/12/20 11:44:57;;;;;;;4.50;1.40;;;8.90;95.20;;;;;;5074580;28;20020;-75
2021/12/20 11:47:31;;;;;;;5.90;2.42;;;9.00;95.50;;;;;;5092813;28;20099;-74
2021/12/20 11:50:10;;;;;;;7.88;1.50;;;9.00;95.10;;;;;;5092986;28;20371;-74
2021/12/20 11:52:41;;;;;;;6.18;1.77;;;9.00;95.10;;;;;;5092719;28;20085;-75
2021/12/20 11:55:25;;;;;;;5.53;1.58;;;9.00;95.10;;;;;;5074715;28;20040;-74
2021/12/20 11:57:59;;;;;;;9.15;2.03;;;9.00;95.10;;;;;;5074392;28;20484;-75
2021/12/20 12:00:27;;;;;;;6.03;1.25;;;9.00;95.00;;;;;;5074589;28;20074;-72
2021/12/20 12:02:56;;;;;;;4.97;1.80;;;8.90;94.90;;;;;;5092595;28;20094;-73
2021/12/20 12:05:38;;;;;;;14.50;2.00;;;9.00;94.90;;;;;;5093128;28;20048;-72
2021/12/20 12:08:22;;;;;;;5.28;1.20;;;9.00;94.80;;;;;;5093358;28;20103;-73
2021/12/20 12:10:49;;;;;;;5.55;2.08;;;8.90;94.80;;;;;;5092367;28;20495;-74
2021/12/20 12:13:16;;;;;;;9.40;1.30;;;8.90;94.70;;;;;;5074298;28;20032;-74
2021/12/20 12:16:39;;;;;;;6.38;1.20;;;8.90;94.60;;;;;;5074381;28;20012;-74
2021/12/20 12:18:48;;;;;;;4.75;1.20;;;8.80;94.60;;;;;;5084057;28;20130;-74
2021/12/20 12:21:38;;;;;;;7.03;1.98;;;8.80;94.60;;;;;;5092363;28;20031;-75
2021/12/20 12:24:10;;;;;;;5.80;1.75;;;8.70;94.60;;;;;;5093008;28;20012;-75
2021/12/20 12:26:47;;;;;;;5.22;1.92;;;8.70;94.60;;;;;;5092737;28;20103;-75
2021/12/20 12:29:22;;;;;;;9.43;2.30;;;8.60;94.70;;;;;;5096192;28;20027;-75
2021/12/20 12:31:57;;;;;;;6.20;1.80;;;8.60;94.70;;;;;;5096362;28;20066;-75
2021/12/20 12:34:45;;;;;;;7.72;2.42;;;8.60;94.70;;;;;;5078048;28;20368;-74
2021/12/20 12:37:22;;;;;;;7.60;2.45;;;8.50;94.70;;;;;;5078452;28;20024;-74
2021/12/20 12:39:48;;;;;;;9.63;2.35;;;8.50;94.70;;;;;;5095939;28;20023;-75
2021/12/20 12:42:14;;;;;;;8.23;2.05;;;8.50;94.70;;;;;;5095859;28;20024;-74
2021/12/20 12:44:49;;;;;;;6.10;2.00;;;8.50;94.80;;;;;;5077639;28;20020;-75
2021/12/20 12:47:15;;;;;;;3.70;1.65;;;8.40;94.70;;;;;;5095820;28;20046;-75
2021/12/20 12:49:47;;;;;;;8.15;2.25;;;8.40;94.70;;;;;;5095780;28;20031;-75
2021/12/20 12:52:16;;;;;;;12.98;3.80;;;8.40;94.70;;;;;;5095821;28;20456;-75
2021/12/20 12:54:52;;;;;;;6.93;2.13;;;8.40;94.70;;;;;;5096308;28;20107;-74
2021/12/20 12:57:17;;;;;;;11.38;3.28;;;8.40;94.70;;;;;;5077791;28;20032;-74
2021/12/20 12:59:56;;;;;;;9.88;2.33;;;8.40;94.70;;;;;;5077574;28;20040;-75
2021/12/20 13:02:24;;;;;;;8.05;2.20;;;8.30;94.70;;;;;;5077642;28;20034;-74
2021/12/20 13:04:53;;;;;;;4.50;1.42;;;8.30;94.70;;;;;;5095502;28;20058;-74
2021/12/20 13:07:23;;;;;;;7.85;1.88;;;8.20;94.80;;;;;;5095483;28;20085;-75
2021/12/20 13:09:50;;;;;;;8.60;2.67;;;8.20;94.80;;;;;;5095643;28;20034;-75
2021/12/20 13:12:33;;;;;;;5.35;1.63;;;8.20;94.80;;;;;;5095273;28;20027;-75
2021/12/20 13:17:42;;;;;;;9.50;2.45;;;8.10;94.80;;;;;;5095091;28;20415;-74
2021/12/20 13:20:19;;;;;;;6.10;2.03;;;8.10;94.80;;;;;;5095087;28;20017;-75